Nearby METAR Reports

 

KSBP - San Luis Obispo, California, USA
Distance from station: S 14mi, 22km
Updated: Thu, 24-Jan-2019 2:56am
Clear
Clear
 Wind from calm
Wind: Calm
Temperature: 50°F , 10°C
Dew Point: 28°F , -2°C
Humidity: 43%
Barometer: 1021.7 hPa
Clouds: Clear
Visibility: 10 miles , 16 km
2019/01/24 10:56 KSBP 241056Z AUTO 00000KT 10SM CLR 10/M02 A3017 RMK AO2 SLP215 T01001017
KPRB - Paso Robles, California, USA
Distance from station: N 16mi, 26km
Updated: Thu, 24-Jan-2019 2:53am
Clear
Clear
 Wind from NNW
Wind: NNW 5 mph , 7 km/h
Temperature: 39°F , 4°C
Wind Chill: 35°F , 2°C
Dew Point: 36°F , 2°C
Humidity: 87%
Barometer: 1024.4 hPa
Clouds: Clear
Visibility: 10 miles , 16 km
2019/01/24 10:53 KPRB 241053Z AUTO 34004KT 10SM CLR 04/02 A3025 RMK AO2 SLP244 T00390022 $
 
KSMX - Santa Maria, California, USA
Distance from station: SSE 38mi, 62km
Updated: Thu, 24-Jan-2019 2:51am
Clear
Clear
 Wind from NNW
Wind: NNW 9 mph , 15 km/h
Temperature: 54°F , 12°C
Dew Point: 30°F , -1°C
Humidity: 41%
Barometer: 1021.3 hPa
Clouds: Clear
Visibility: 10 miles , 16 km
2019/01/24 10:51 KSMX 241051Z AUTO 33008KT 10SM CLR 12/M01 A3016 RMK AO2 SLP215 T01221006 $
KVBG - Vandenberg Afb, California, USA
Distance from station: S 48mi, 78km
Updated: Thu, 24-Jan-2019 2:58am
Clear
Clear
 Wind from N
Wind: N 5 mph , 7 km/h
Temperature: 54°F , 12°C
Dew Point: 34°F , 1°C
Humidity: 47%
Barometer: 1021 hPa
Clouds: Clear
Visibility: 10 miles , 16 km
2019/01/24 10:58 KVBG 241058Z AUTO 35004KT 10SM CLR 12/01 A3015 RMK AO2 SLP213 T01170006 $